Time;durP1;ratioP1;P1;durP2;ratioP2;P2;SDS_P1;SDS_P2;PMS_P1;PMS_P2;Temp;Humidity;BMP_temperature;BMP_pressure;BME280_temperature;BME280_humidity;BME280_pressure;Samples;Min_cycle;Max_cycle;Signal;HPM_P1;HPM_P2
2023/04/24 00:00:44;;;;;;;7.05;4.95;;;;;;;8.89;100.00;99709.53;4916877;29;20063;-71
2023/04/24 00:03:12;;;;;;;6.57;5.05;;;;;;;8.88;100.00;99703.34;4916771;29;20059;-72
2023/04/24 00:05:40;;;;;;;8.10;5.38;;;;;;;8.83;100.00;99693.16;4918833;29;20127;-71
2023/04/24 00:08:06;;;;;;;6.53;5.38;;;;;;;8.81;100.00;99699.69;4918983;29;20103;-71
2023/04/24 00:10:33;;;;;;;8.95;4.95;;;;;;;8.85;100.00;99696.50;4917754;29;20072;-71
2023/04/24 00:12:59;;;;;;;6.75;4.95;;;;;;;8.83;100.00;99692.34;4918939;29;20492;-71
2023/04/24 00:15:26;;;;;;;6.50;5.10;;;;;;;8.82;100.00;99691.50;4915504;29;20382;-71
2023/04/24 00:17:53;;;;;;;9.07;4.93;;;;;;;8.68;100.00;99686.03;4918784;29;20421;-71
2023/04/24 00:20:19;;;;;;;7.47;5.28;;;;;;;8.64;100.00;99690.06;4916135;29;20489;-71
2023/04/24 00:22:46;;;;;;;10.05;5.40;;;;;;;8.66;100.00;99680.03;4917558;29;20078;-71
2023/04/24 00:25:12;;;;;;;6.00;5.10;;;;;;;8.66;100.00;99672.03;4917328;29;20058;-70
2023/04/24 00:27:39;;;;;;;8.98;5.63;;;;;;;8.68;100.00;99670.84;4917126;29;20056;-71
2023/04/24 00:30:06;;;;;;;8.73;5.55;;;;;;;8.69;100.00;99667.16;4916181;29;20044;-71
2023/04/24 00:32:33;;;;;;;6.40;5.15;;;;;;;8.61;100.00;99664.53;4916986;29;20131;-71
2023/04/24 00:34:59;;;;;;;10.50;5.85;;;;;;;8.61;100.00;99664.53;4916739;29;20048;-72
2023/04/24 00:37:26;;;;;;;7.78;5.47;;;;;;;8.58;100.00;99657.69;4916306;29;20051;-70
2023/04/24 00:39:52;;;;;;;7.00;5.35;;;;;;;8.57;100.00;99645.34;4916446;29;20055;-71
2023/04/24 00:42:19;;;;;;;6.25;5.18;;;;;;;8.63;100.00;99641.09;4917568;29;20048;-71
2023/04/24 00:44:46;;;;;;;12.25;5.93;;;;;;;8.70;100.00;99641.25;4916723;29;20059;-72
2023/04/24 00:47:12;;;;;;;5.93;5.00;;;;;;;8.56;100.00;99640.97;4914777;29;20126;-72
2023/04/24 00:49:39;;;;;;;7.63;5.25;;;;;;;8.54;100.00;99637.66;4916714;29;20058;-72
2023/04/24 00:52:08;;;;;;;6.85;5.07;;;;;;;8.59;100.00;99631.78;4916747;29;20157;-71
2023/04/24 00:54:35;;;;;;;6.10;4.97;;;;;;;8.53;100.00;99629.78;4916994;29;20394;-71
2023/04/24 00:57:05;;;;;;;7.13;5.18;;;;;;;8.53;100.00;99629.78;4916877;29;20048;-71
2023/04/24 00:59:32;;;;;;;11.00;5.05;;;;;;;8.58;100.00;99633.63;4916631;29;20468;-71
2023/04/24 01:01:59;;;;;;;6.60;5.10;;;;;;;8.56;100.00;99632.13;4916376;29;20044;-70
2023/04/24 01:04:26;;;;;;;6.40;4.47;;;;;;;8.35;100.00;99636.22;4917799;29;20123;-71
2023/04/24 01:07:22;;;;;;;9.60;5.85;;;;;;;8.35;100.00;99641.56;4916708;29;20052;-72
2023/04/24 01:09:50;;;;;;;7.63;4.88;;;;;;;8.41;100.00;99632.03;4916527;29;20143;-70
2023/04/24 01:12:18;;;;;;;7.32;4.75;;;;;;;8.44;100.00;99642.38;4916856;29;20059;-72
2023/04/24 01:14:45;;;;;;;7.75;4.93;;;;;;;8.31;100.00;99637.56;4912492;29;20056;-72
2023/04/24 01:17:12;;;;;;;6.20;4.65;;;;;;;8.38;100.00;99637.72;4919389;29;20052;-72
2023/04/24 01:19:57;;;;;;;7.03;5.85;;;;;;;8.02;100.00;99634.63;4919451;29;20050;-72
2023/04/24 01:22:23;;;;;;;5.85;5.22;;;;;;;8.24;100.00;99625.06;4920920;29;20063;-71
2023/04/24 01:24:51;;;;;;;8.55;5.90;;;;;;;8.29;100.00;99634.22;4919859;29;20062;-72
2023/04/24 01:27:17;;;;;;;8.68;5.45;;;;;;;8.10;100.00;99630.13;4920917;29;20052;-72
2023/04/24 01:29:44;;;;;;;9.20;5.93;;;;;;;8.29;100.00;99630.72;4921297;29;20060;-71
2023/04/24 01:32:11;;;;;;;7.55;6.47;;;;;;;8.20;100.00;99619.22;4917141;29;20059;-72
2023/04/24 01:34:38;;;;;;;9.00;6.00;;;;;;;8.26;100.00;99623.91;4920730;29;20051;-72
2023/04/24 01:37:05;;;;;;;10.35;5.68;;;;;;;7.99;100.00;99619.78;4922038;29;20059;-72
2023/04/24 01:39:33;;;;;;;6.95;5.60;;;;;;;8.11;100.00;99621.09;4921577;29;20052;-72
2023/04/24 01:42:00;;;;;;;7.55;5.53;;;;;;;8.04;100.00;99625.44;4905812;29;20087;-72
2023/04/24 01:44:27;;;;;;;8.88;6.28;;;;;;;8.14;100.00;99620.75;4921659;29;20044;-72
2023/04/24 01:46:54;;;;;;;6.85;5.78;;;;;;;8.17;100.00;99616.06;4921082;29;20131;-72
2023/04/24 01:49:21;;;;;;;9.07;6.53;;;;;;;7.92;100.00;99604.63;4920957;29;20048;-71
2023/04/24 01:51:48;;;;;;;7.85;6.10;;;;;;;7.94;100.00;99598.09;4922799;29;20139;-71
2023/04/24 01:54:14;;;;;;;10.18;6.40;;;;;;;7.97;100.00;99595.09;4921907;29;20108;-72
2023/04/24 01:56:44;;;;;;;12.20;7.05;;;;;;;7.89;100.00;99595.94;4922825;29;20127;-72
2023/04/24 01:59:11;;;;;;;10.98;6.82;;;;;;;7.93;100.00;99595.59;4923080;29;20480;-72
2023/04/24 02:01:38;;;;;;;8.85;6.50;;;;;;;7.81;100.00;99608.44;4920557;29;20051;-72
2023/04/24 02:04:06;;;;;;;12.82;6.95;;;;;;;7.63;100.00;99593.44;4925142;29;20070;-72
2023/04/24 02:06:33;;;;;;;13.32;7.30;;;;;;;7.62;100.00;99594.44;4923651;29;20076;-72
2023/04/24 02:09:00;;;;;;;9.63;6.47;;;;;;;7.58;100.00;99597.63;4919795;29;20134;-72
2023/04/24 02:11:26;;;;;;;11.63;6.43;;;;;;;7.77;100.00;99586.56;4921522;29;20405;-71
2023/04/24 02:13:53;;;;;;;11.93;6.30;;;;;;;7.82;100.00;99586.09;4921596;29;20056;-72
2023/04/24 02:16:20;;;;;;;9.52;6.47;;;;;;;7.78;100.00;99580.25;4911058;29;20119;-72
2023/04/24 02:18:46;;;;;;;7.40;6.18;;;;;;;7.72;100.00;99572.09;4920713;29;20112;-72
2023/04/24 02:21:13;;;;;;;8.63;6.32;;;;;;;7.78;100.00;99569.56;4920624;29;20064;-72
2023/04/24 02:23:39;;;;;;;10.13;6.90;;;;;;;7.77;100.00;99575.06;4918611;29;20394;-72
2023/04/24 02:26:06;;;;;;;8.00;6.35;;;;;;;7.75;100.00;99574.41;4921359;29;20081;-72
2023/04/24 02:28:32;;;;;;;10.00;6.03;;;;;;;7.54;100.00;99577.63;4920930;29;20040;-72
2023/04/24 02:31:00;;;;;;;10.57;6.95;;;;;;;7.74;100.00;99581.59;4921883;29;20048;-72
2023/04/24 02:33:27;;;;;;;10.98;6.35;;;;;;;7.70;100.00;99574.91;4920945;29;20462;-72
2023/04/24 02:35:53;;;;;;;9.32;6.55;;;;;;;7.60;100.00;99576.91;4921415;29;20055;-72
2023/04/24 02:38:20;;;;;;;9.35;7.00;;;;;;;7.60;100.00;99577.78;4905615;29;20051;-72
2023/04/24 02:40:46;;;;;;;8.88;6.75;;;;;;;7.58;100.00;99577.09;4924436;29;20090;-72
2023/04/24 02:43:12;;;;;;;10.40;6.82;;;;;;;7.55;100.00;99582.78;4923308;29;20047;-71
2023/04/24 02:45:39;;;;;;;10.27;6.53;;;;;;;7.61;100.00;99579.44;4922639;29;20493;-72
2023/04/24 02:48:06;;;;;;;9.05;6.82;;;;;;;7.59;100.00;99572.59;4923719;29;20056;-72
2023/04/24 02:50:33;;;;;;;10.90;6.90;;;;;;;7.65;100.00;99572.75;4923761;29;20040;-72
2023/04/24 02:53:00;;;;;;;9.38;6.68;;;;;;;7.57;100.00;99570.13;4924748;29;20048;-71
2023/04/24 02:55:26;;;;;;;9.02;6.70;;;;;;;7.61;100.00;99567.94;4924358;29;20076;-70
2023/04/24 02:57:52;;;;;;;10.63;7.20;;;;;;;7.69;100.00;99567.09;4924799;29;20048;-71
2023/04/24 03:00:19;;;;;;;11.00;6.82;;;;;;;7.75;100.00;99567.25;4924070;29;20155;-72
2023/04/24 03:02:46;;;;;;;12.65;7.10;;;;;;;7.64;100.00;99565.75;4924792;29;20056;-72
2023/04/24 03:05:13;;;;;;;7.65;6.75;;;;;;;7.66;100.00;99569.06;4924207;29;20059;-71
2023/04/24 03:07:40;;;;;;;9.88;7.38;;;;;;;7.68;100.00;99563.59;4924103;29;20072;-71
2023/04/24 03:10:07;;;;;;;8.77;7.55;;;;;;;7.76;100.00;99565.41;4924905;29;20123;-71
2023/04/24 03:12:33;;;;;;;8.57;6.78;;;;;;;7.66;100.00;99578.94;4925106;29;20052;-72
2023/04/24 03:15:00;;;;;;;10.73;6.97;;;;;;;7.80;100.00;99574.72;4923865;29;20074;-70
2023/04/24 03:17:27;;;;;;;8.82;6.93;;;;;;;7.83;100.00;99587.75;4923500;29;20060;-72
2023/04/24 03:19:53;;;;;;;8.02;6.20;;;;;;;7.92;100.00;99577.91;4921873;29;20560;-72
2023/04/24 03:22:20;;;;;;;9.63;7.00;;;;;;;7.88;100.00;99586.28;4922321;29;20115;-72
2023/04/24 03:24:46;;;;;;;8.45;6.93;;;;;;;7.92;100.00;99572.59;4920070;29;20087;-72
2023/04/24 03:27:12;;;;;;;9.45;6.50;;;;;;;7.95;100.00;99581.09;4919702;29;20075;-72
2023/04/24 03:29:39;;;;;;;9.80;6.95;;;;;;;7.97;100.00;99579.06;4919189;29;20070;-72
2023/04/24 03:32:06;;;;;;;11.10;6.38;;;;;;;8.10;100.00;99575.84;4919670;29;20409;-72
2023/04/24 03:34:32;;;;;;;9.07;6.05;;;;;;;7.96;100.00;99566.72;4919245;29;20051;-72
2023/04/24 03:36:59;;;;;;;9.18;6.25;;;;;;;8.01;100.00;99583.03;4918530;29;20489;-72
2023/04/24 03:39:25;;;;;;;12.45;6.80;;;;;;;8.03;100.00;99583.72;4916709;29;20142;-72
2023/04/24 03:41:52;;;;;;;9.45;7.13;;;;;;;8.04;100.00;99587.22;4917273;29;20055;-72
2023/04/24 03:44:18;;;;;;;8.30;6.70;;;;;;;8.04;100.00;99588.03;4918511;29;20048;-72
2023/04/24 03:46:45;;;;;;;12.95;6.88;;;;;;;7.94;100.00;99590.06;4916825;29;20052;-72
2023/04/24 03:49:11;;;;;;;9.60;6.63;;;;;;;8.02;100.00;99587.41;4917976;29;20048;-72
2023/04/24 03:51:38;;;;;;;12.57;6.65;;;;;;;8.03;100.00;99586.38;4916879;29;20053;-72
2023/04/24 03:54:04;;;;;;;9.55;6.63;;;;;;;8.07;100.00;99587.72;4918890;29;20048;-72
2023/04/24 03:56:31;;;;;;;10.70;6.85;;;;;;;8.10;100.00;99579.34;4918812;29;20055;-72
2023/04/24 03:58:57;;;;;;;44.00;7.30;;;;;;;8.12;100.00;99585.38;4919128;29;20070;-72
2023/04/24 04:01:24;;;;;;;9.60;6.47;;;;;;;8.00;100.00;99578.72;4920599;29;20052;-72
2023/04/24 04:03:50;;;;;;;15.40;7.20;;;;;;;8.12;100.00;99582.69;4917054;29;20056;-72
2023/04/24 04:06:19;;;;;;;8.65;6.63;;;;;;;8.08;100.00;99577.84;4903676;29;20134;-71
2023/04/24 04:08:45;;;;;;;10.10;6.38;;;;;;;8.12;100.00;99576.50;4920394;29;20151;-72
2023/04/24 04:11:12;;;;;;;10.00;6.78;;;;;;;8.13;100.00;99573.66;4923375;29;20123;-72
2023/04/24 04:13:38;;;;;;;9.50;6.35;;;;;;;8.18;100.00;99575.81;4921272;29;20047;-72
2023/04/24 04:16:05;;;;;;;10.95;6.57;;;;;;;8.09;100.00;99569.69;4919760;29;20056;-72
2023/04/24 04:18:32;;;;;;;10.50;6.72;;;;;;;8.19;100.00;99572.13;4917397;29;20048;-72
2023/04/24 04:20:58;;;;;;;9.50;6.40;;;;;;;8.26;100.00;99574.94;4918396;29;20531;-72
2023/04/24 04:23:25;;;;;;;10.40;6.03;;;;;;;8.21;100.00;99569.31;4917712;29;20473;-72
2023/04/24 04:25:52;;;;;;;8.57;7.03;;;;;;;8.29;100.00;99580.78;4918314;29;20131;-71
2023/04/24 04:28:19;;;;;;;6.97;5.35;;;;;;;8.36;100.00;99576.44;4917179;29;20056;-72
2023/04/24 04:30:46;;;;;;;12.20;6.00;;;;;;;8.24;100.00;99572.47;4925637;23;20048;-72
2023/04/24 04:33:14;;;;;;;13.18;6.00;;;;;;;8.19;100.00;99571.31;4920833;29;20058;-72
2023/04/24 04:35:41;;;;;;;7.00;5.72;;;;;;;8.25;100.00;99583.97;4920543;29;20118;-72
2023/04/24 04:38:08;;;;;;;11.00;5.82;;;;;;;8.17;100.00;99582.16;4923955;29;20115;-71
2023/04/24 04:40:34;;;;;;;7.88;5.80;;;;;;;8.17;100.00;99579.50;4923601;29;20040;-71
2023/04/24 04:43:01;;;;;;;8.80;6.22;;;;;;;8.17;100.00;99587.53;4923459;29;20044;-72
2023/04/24 04:45:28;;;;;;;7.80;5.55;;;;;;;8.10;100.00;99589.22;4923401;29;20127;-71
2023/04/24 04:47:55;;;;;;;7.40;5.72;;;;;;;8.16;100.00;99593.00;4922259;29;20052;-72
2023/04/24 04:50:22;;;;;;;10.02;5.20;;;;;;;8.20;100.00;99592.53;4920218;29;20047;-72
2023/04/24 04:52:49;;;;;;;8.20;5.60;;;;;;;8.27;100.00;99592.66;4918744;29;20056;-72
2023/04/24 04:55:15;;;;;;;7.93;5.03;;;;;;;8.23;100.00;99596.69;4919176;29;20048;-72
2023/04/24 04:57:42;;;;;;;9.50;5.40;;;;;;;8.23;100.00;99596.69;4921329;29;20078;-72
2023/04/24 05:00:10;;;;;;;7.07;4.82;;;;;;;8.29;100.00;99596.81;4921638;29;20044;-72
2023/04/24 05:02:36;;;;;;;6.82;5.07;;;;;;;8.30;100.00;99598.50;4932017;29;20059;-71
2023/04/24 05:05:04;;;;;;;6.22;4.75;;;;;;;8.30;100.00;99606.50;4938962;29;20078;-71
2023/04/24 05:07:30;;;;;;;8.73;5.32;;;;;;;8.42;100.00;99612.31;4932642;29;20079;-71
2023/04/24 05:09:57;;;;;;;7.47;4.20;;;;;;;8.30;100.00;99603.84;4936968;29;20055;-72
2023/04/24 05:12:23;;;;;;;6.85;4.38;;;;;;;8.43;100.00;99611.28;4936457;29;20539;-72
2023/04/24 05:14:50;;;;;;;5.78;4.03;;;;;;;8.44;100.00;99610.31;4936360;29;20062;-72
2023/04/24 05:17:18;;;;;;;6.45;4.25;;;;;;;8.44;100.00;99612.16;4936317;29;20058;-72
2023/04/24 05:19:44;;;;;;;6.85;4.57;;;;;;;8.57;100.00;99597.22;4938608;29;20047;-72
2023/04/24 05:22:12;;;;;;;7.82;3.67;;;;;;;8.55;100.00;99611.75;4939753;29;20094;-72
2023/04/24 05:24:38;;;;;;;5.10;3.88;;;;;;;8.64;100.00;99616.03;4938847;29;20079;-72
2023/04/24 05:27:05;;;;;;;10.48;4.45;;;;;;;8.63;100.00;99617.06;4939618;29;20071;-71
2023/04/24 05:29:32;;;;;;;5.35;3.67;;;;;;;8.81;100.00;99622.13;4937647;29;20056;-72
2023/04/24 05:32:00;;;;;;;7.75;3.47;;;;;;;8.81;100.00;99612.25;4921775;29;20083;-72
2023/04/24 05:34:26;;;;;;;7.95;3.40;;;;;;;8.83;100.00;99618.28;4923971;29;20112;-71
2023/04/24 05:36:53;;;;;;;4.85;3.25;;;;;;;8.85;100.00;99620.81;4922299;29;20060;-71
2023/04/24 05:39:20;;;;;;;5.85;3.00;;;;;;;8.91;100.00;99620.06;4921047;29;20082;-72
2023/04/24 05:41:46;;;;;;;3.92;2.78;;;;;;;8.92;100.00;99615.56;4906601;29;20054;-72
2023/04/24 05:44:13;;;;;;;4.47;2.63;;;;;;;8.96;100.00;99616.88;4922112;29;20136;-72
2023/04/24 05:46:39;;;;;;;5.78;2.70;;;;;;;8.87;100.00;99631.31;4921485;29;20048;-72
2023/04/24 05:49:06;;;;;;;6.88;2.75;;;;;;;8.93;100.00;99614.56;4926072;29;20538;-71
2023/04/24 05:51:33;;;;;;;5.50;3.10;;;;;;;8.98;100.00;99621.03;4924679;29;20131;-72
2023/04/24 05:53:59;;;;;;;5.00;3.20;;;;;;;9.03;100.00;99626.69;4925595;29;20052;-71
2023/04/24 05:56:26;;;;;;;7.97;3.00;;;;;;;9.17;100.00;99627.78;4923113;29;20148;-71
2023/04/24 05:58:52;;;;;;;6.65;3.92;;;;;;;9.55;100.00;99625.19;4921963;29;20093;-72
2023/04/24 06:01:19;;;;;;;9.55;3.38;;;;;;;9.64;100.00;99639.31;4922020;29;20044;-71
2023/04/24 06:03:45;;;;;;;6.28;2.63;;;;;;;9.46;100.00;99635.09;4922507;29;20719;-71
2023/04/24 06:06:13;;;;;;;5.57;2.80;;;;;;;9.54;100.00;99631.53;4924244;29;20063;-71
2023/04/24 06:08:39;;;;;;;9.85;3.13;;;;;;;9.86;100.00;99637.63;4925828;29;20062;-72
2023/04/24 06:11:06;;;;;;;6.70;2.45;;;;;;;9.95;100.00;99637.34;4917479;29;20107;-71
2023/04/24 06:13:32;;;;;;;15.55;3.08;;;;;;;9.94;100.00;99651.75;4925472;29;20472;-71
2023/04/24 06:15:58;;;;;;;7.40;2.85;;;;;;;9.79;100.00;99653.59;4925886;29;20062;-72
2023/04/24 06:18:25;;;;;;;4.10;2.70;;;;;;;9.87;100.00;99655.38;4924135;29;20063;-73
2023/04/24 06:20:51;;;;;;;6.03;2.65;;;;;;;9.96;100.00;99655.09;4923364;29;20502;-74
2023/04/24 06:23:18;;;;;;;3.92;2.33;;;;;;;10.11;100.00;99656.97;4920259;29;20412;-74
2023/04/24 06:25:44;;;;;;;5.68;2.13;;;;;;;10.39;100.00;99659.84;4922308;29;20048;-73
2023/04/24 06:28:12;;;;;;;5.90;1.88;;;;;;;10.57;100.00;99648.78;4921320;29;20047;-74
2023/04/24 06:30:39;;;;;;;5.10;2.30;;;;;;;10.82;100.00;99658.16;4921393;29;20058;-73
2023/04/24 06:33:06;;;;;;;2.30;1.77;;;;;;;11.18;100.00;99654.66;4918971;29;20054;-72
2023/04/24 06:35:46;;;;;;;3.65;1.90;;;;;;;11.66;100.00;99658.47;4917803;29;20052;-72
2023/04/24 06:38:12;;;;;;;2.97;2.08;;;;;;;11.99;100.00;99660.59;4920239;29;20120;-72
2023/04/24 06:40:39;;;;;;;3.47;1.60;;;;;;;12.21;100.00;99657.84;4921745;29;20084;-73
2023/04/24 06:43:06;;;;;;;2.90;1.08;;;;;;;12.11;100.00;99667.09;4921118;29;20494;-73
2023/04/24 06:45:32;;;;;;;2.22;1.30;;;;;;;12.49;100.00;99663.22;4920513;29;20044;-73
2023/04/24 06:47:59;;;;;;;4.60;1.70;;;;;;;12.64;100.00;99653.13;4902383;29;20048;-73
2023/04/24 06:50:25;;;;;;;4.60;1.20;;;;;;;12.25;100.00;99640.31;4921961;29;20095;-72
2023/04/24 06:52:52;;;;;;;6.68;3.55;;;;;;;12.67;100.00;99643.84;4920386;29;20398;-73
2023/04/24 06:55:18;;;;;;;5.25;1.63;;;;;;;12.43;100.00;99647.84;4912486;29;20109;-72
2023/04/24 06:57:45;;;;;;;7.90;2.45;;;;;;;12.51;100.00;99655.75;4930434;29;20482;-73
2023/04/24 07:00:12;;;;;;;6.03;1.95;;;;;;;12.64;100.00;99648.56;4933354;29;20068;-72
2023/04/24 07:02:39;;;;;;;2.95;1.35;;;;;;;12.92;100.00;99649.56;4935315;29;20115;-73
2023/04/24 07:05:08;;;;;;;4.18;1.02;;;;;;;13.07;100.00;99648.34;4932773;29;20047;-72
2023/04/24 07:07:37;;;;;;;9.77;1.77;;;;;;;13.07;100.00;99644.81;4932863;29;20099;-72
2023/04/24 07:10:05;;;;;;;3.63;1.00;;;;;;;13.47;100.00;99640.34;4932191;29;20048;-72
2023/04/24 07:12:32;;;;;;;4.38;1.75;;;;;;;13.46;100.00;99645.97;4932748;29;20044;-72
2023/04/24 07:14:58;;;;;;;4.50;1.50;;;;;;;13.88;100.00;99647.47;4932888;29;20056;-73
2023/04/24 07:17:25;;;;;;;2.83;1.25;;;;;;;13.48;100.00;99657.34;4933210;29;20052;-71
2023/04/24 07:19:51;;;;;;;7.20;1.17;;;;;;;12.72;100.00;99652.13;4933547;29;20131;-72
2023/04/24 07:22:18;;;;;;;4.50;1.40;;;;;;;13.08;100.00;99655.41;4927165;29;20051;-72
2023/04/24 07:24:45;;;;;;;3.10;1.13;;;;;;;13.40;100.00;99654.88;4934848;29;20082;-72
2023/04/24 07:27:11;;;;;;;6.50;0.90;;;;;;;13.90;100.00;99655.31;4934327;29;20107;-72
2023/04/24 07:29:39;;;;;;;4.05;2.03;;;;;;;14.69;98.90;99665.97;4991180;23;20035;-72
2023/04/24 07:32:07;;;;;;;3.97;0.95;;;;;;;15.16;87.13;99661.22;4933775;29;20052;-71
2023/04/24 07:34:34;;;;;;;2.47;1.00;;;;;;;15.14;84.25;99657.91;4933081;29;20116;-72
2023/04/24 07:37:01;;;;;;;2.60;0.95;;;;;;;15.38;77.71;99658.19;4934563;29;20072;-72
2023/04/24 07:39:29;;;;;;;1.73;0.73;;;;;;;15.23;76.46;99651.22;4934084;29;20116;-72
2023/04/24 07:41:55;;;;;;;5.95;0.85;;;;;;;15.32;72.54;99646.38;4933840;29;20104;-71
2023/04/24 07:44:21;;;;;;;1.48;0.90;;;;;;;15.49;72.67;99644.78;4933953;29;20068;-71
2023/04/24 07:46:48;;;;;;;1.40;0.60;;;;;;;16.45;67.16;99644.63;4917593;29;20076;-72
2023/04/24 07:49:15;;;;;;;1.10;0.80;;;;;;;16.81;65.67;99644.63;4934596;29;20052;-71
2023/04/24 07:51:45;;;;;;;1.77;0.70;;;;;;;16.19;64.53;99650.09;4933778;29;20052;-70
2023/04/24 07:54:11;;;;;;;1.40;0.52;;;;;;;16.39;63.72;99641.75;4931795;29;20079;-71
2023/04/24 07:56:38;;;;;;;2.20;1.00;;;;;;;16.64;61.82;99641.72;4934684;29;20059;-72
2023/04/24 07:59:06;;;;;;;3.50;1.23;;;;;;;16.38;62.83;99642.81;4934869;29;20052;-70
2023/04/24 08:01:32;;;;;;;1.02;0.85;;;;;;;16.70;63.96;99644.56;4938107;29;20043;-71
2023/04/24 08:03:59;;;;;;;6.00;0.88;;;;;;;17.58;62.20;99647.53;4951286;29;20073;-72
2023/04/24 08:06:30;;;;;;;1.10;0.52;;;;;;;17.10;63.18;99642.19;4952986;29;20054;-70
2023/04/24 08:08:57;;;;;;;1.50;0.75;;;;;;;17.13;63.57;99631.69;4953257;29;20083;-71
2023/04/24 08:11:25;;;;;;;3.33;1.02;;;;;;;16.38;61.42;99634.69;4951925;29;20059;-70
2023/04/24 08:13:52;;;;;;;2.17;0.65;;;;;;;15.66;64.10;99637.00;4952675;29;20079;-70
2023/04/24 08:16:18;;;;;;;3.53;0.75;;;;;;;15.87;65.31;99641.19;4952468;29;20070;-71
2023/04/24 08:18:45;;;;;;;4.15;0.77;;;;;;;15.36;68.07;99638.66;4927454;29;20481;-70
2023/04/24 08:21:16;;;;;;;3.65;0.80;;;;;;;14.65;67.91;99648.53;4952520;29;20120;-73
2023/04/24 08:23:43;;;;;;;5.45;0.60;;;;;;;14.60;66.17;99651.06;4953832;29;20040;-72
2023/04/24 08:26:11;;;;;;;2.22;0.60;;;;;;;14.87;66.49;99648.28;4953946;29;20047;-71
2023/04/24 08:28:37;;;;;;;7.30;0.60;;;;;;;15.51;61.76;99633.78;4953561;29;20055;-72
2023/04/24 08:31:04;;;;;;;1.95;0.80;;;;;;;15.86;61.04;99633.31;4934069;29;20048;-72
2023/04/24 08:33:34;;;;;;;4.07;0.63;;;;;;;15.73;60.87;99630.72;4935730;29;20108;-72
2023/04/24 08:36:05;;;;;;;4.88;0.70;;;;;;;14.96;64.92;99639.72;4935684;29;20050;-71
2023/04/24 08:38:33;;;;;;;7.85;1.08;;;;;;;14.76;67.41;99638.97;4935401;29;20052;-73
2023/04/24 08:41:01;;;;;;;6.05;1.50;;;;;;;14.65;68.31;99635.03;4934694;29;20052;-71
2023/04/24 08:43:28;;;;;;;5.53;2.78;;;;;;;14.43;71.26;99642.59;4935006;29;20044;-71
2023/04/24 08:45:56;;;;;;;5.10;1.15;;;;;;;14.88;67.50;99639.97;4934816;29;20048;-71
2023/04/24 08:48:23;;;;;;;4.75;0.95;;;;;;;15.62;65.48;99633.06;4935140;29;20054;-72
2023/04/24 08:50:57;;;;;;;7.00;1.30;;;;;;;16.19;62.99;99622.16;4935483;29;20054;-71
2023/04/24 08:53:25;;;;;;;6.65;0.88;;;;;;;15.23;67.81;99631.47;4934952;29;20099;-70
2023/04/24 08:55:53;;;;;;;2.50;0.90;;;;;;;14.93;72.51;99633.91;4934821;29;20048;-71
2023/04/24 08:58:20;;;;;;;2.00;0.93;;;;;;;14.35;78.96;99631.19;4935329;29;20034;-71
2023/04/24 09:00:47;;;;;;;3.03;1.15;;;;;;;14.21;84.12;99625.81;4934004;29;20067;-71
2023/04/24 09:03:15;;;;;;;2.97;0.95;;;;;;;13.78;84.54;99639.78;4933177;29;20048;-70
2023/04/24 09:05:45;;;;;;;5.20;0.90;;;;;;;14.04;83.79;99635.41;4934789;29;20048;-70
2023/04/24 09:08:17;;;;;;;5.05;0.60;;;;;;;14.09;86.79;99642.88;4932014;29;20075;-70
2023/04/24 09:10:44;;;;;;;3.35;1.15;;;;;;;14.09;91.24;99641.00;4934718;29;20134;-70
2023/04/24 09:13:11;;;;;;;2.95;1.08;;;;;;;13.94;97.44;99641.25;4935341;29;20052;-70
2023/04/24 09:15:39;;;;;;;4.38;0.88;;;;;;;14.00;100.00;99640.38;4934320;29;20060;-70
2023/04/24 09:18:06;;;;;;;3.25;1.00;;;;;;;13.90;100.00;99639.16;4933889;29;20067;-72
2023/04/24 09:20:33;;;;;;;3.45;1.00;;;;;;;13.44;100.00;99639.94;4934752;29;20051;-71
2023/04/24 09:22:59;;;;;;;4.68;1.20;;;;;;;13.29;100.00;99638.25;4935668;29;20068;-71
2023/04/24 09:25:33;;;;;;;8.85;1.35;;;;;;;13.83;100.00;99639.16;4935231;29;20052;-71
2023/04/24 09:28:02;;;;;;;2.78;1.10;;;;;;;13.95;100.00;99647.47;4933688;29;20112;-71
2023/04/24 09:30:29;;;;;;;3.85;0.98;;;;;;;13.83;100.00;99661.53;4934499;29;20120;-71
2023/04/24 09:33:15;;;;;;;2.83;0.85;;;;;;;13.57;100.00;99646.16;4935221;29;20044;-71
2023/04/24 09:35:48;;;;;;;7.05;1.08;;;;;;;13.41;100.00;99653.81;4935060;29;20112;-71
2023/04/24 09:38:14;;;;;;;4.13;0.98;;;;;;;13.30;100.00;99645.31;4921019;29;20121;-71
2023/04/24 09:40:41;;;;;;;4.18;0.95;;;;;;;13.94;100.00;99651.16;4938583;29;20071;-71
2023/04/24 09:43:11;;;;;;;3.92;1.02;;;;;;;13.76;100.00;99655.31;4938820;29;20060;-70
2023/04/24 09:45:39;;;;;;;2.58;0.98;;;;;;;14.01;100.00;99654.69;4939655;29;20131;-71
2023/04/24 09:48:09;;;;;;;2.45;0.60;;;;;;;13.69;100.00;99657.16;4939431;29;20044;-70
2023/04/24 09:50:36;;;;;;;1.88;0.80;;;;;;;13.76;100.00;99649.09;4939425;29;20032;-70
2023/04/24 09:53:08;;;;;;;1.45;0.77;;;;;;;13.92;98.77;99647.88;4940937;29;20040;-70
2023/04/24 09:56:08;;;;;;;4.45;0.77;;;;;;;14.17;97.88;99635.38;4863884;29;20057;-71
2023/04/24 09:58:36;;;;;;;1.98;0.90;;;;;;;14.38;94.14;99652.38;4865929;29;20050;-71
2023/04/24 10:01:03;;;;;;;3.00;1.00;;;;;;;14.16;97.24;99644.53;4864890;29;20064;-70
2023/04/24 10:03:31;;;;;;;2.53;0.80;;;;;;;14.07;99.91;99643.06;4881979;29;20045;-72
2023/04/24 10:06:01;;;;;;;2.13;1.00;;;;;;;14.37;98.00;99632.66;4883897;29;20137;-70
2023/04/24 10:08:35;;;;;;;4.17;0.67;;;;;;;15.33;81.57;99639.09;4881032;29;20049;-72
2023/04/24 10:11:02;;;;;;;7.25;1.00;;;;;;;15.63;77.49;99632.03;4880080;29;20049;-70
2023/04/24 10:13:29;;;;;;;8.50;1.35;;;;;;;15.34;79.61;99646.16;4881261;29;20049;-71
2023/04/24 10:15:59;;;;;;;6.57;0.85;;;;;;;15.76;76.50;99639.22;4880337;29;20049;-70
2023/04/24 10:18:26;;;;;;;3.50;0.98;;;;;;;15.63;78.03;99640.16;4880949;29;20075;-72
2023/04/24 10:20:54;;;;;;;3.80;0.68;;;;;;;14.71;81.57;99639.63;4882553;29;20065;-70
2023/04/24 10:23:21;;;;;;;4.35;0.63;;;;;;;14.57;84.77;99646.09;4880819;29;20082;-70
2023/04/24 10:25:50;;;;;;;2.92;0.77;;;;;;;14.23;95.48;99642.63;4880881;29;20101;-70
2023/04/24 10:28:18;;;;;;;5.03;1.08;;;;;;;14.12;99.82;99647.84;4880554;29;20091;-71
2023/04/24 10:30:45;;;;;;;4.95;0.75;;;;;;;13.56;100.00;99632.88;4882370;29;20052;-70
2023/04/24 10:33:13;;;;;;;10.95;1.35;;;;;;;13.58;100.00;99637.03;4882720;29;20033;-71
2023/04/24 10:35:43;;;;;;;5.13;0.70;;;;;;;13.16;100.00;99635.53;4882938;29;20061;-72
2023/04/24 10:38:15;;;;;;;7.30;0.98;;;;;;;13.01;100.00;99643.78;4884112;29;20029;-72
2023/04/24 10:40:42;;;;;;;;;;;;;;;13.19;100.00;99640.53;4882945;29;20049;-72
2023/04/24 10:43:11;;;;;;;7.80;1.80;;;;;;;12.78;100.00;99641.41;4884062;29;19924;-72
2023/04/24 10:45:39;;;;;;;9.93;1.40;;;;;;;12.70;100.00;99636.19;4883524;29;20234;-72
2023/04/24 10:48:13;;;;;;;3.60;0.90;;;;;;;12.97;100.00;99634.47;4883752;29;20037;-72
2023/04/24 10:50:46;;;;;;;4.57;1.30;;;;;;;13.19;100.00;99627.06;4914670;23;20053;-71
2023/04/24 10:53:19;;;;;;;7.40;1.08;;;;;;;12.68;100.00;99630.16;4921457;29;20048;-72
2023/04/24 10:55:50;;;;;;;6.03;1.23;;;;;;;12.83;100.00;99630.91;4920538;29;20068;-70
2023/04/24 10:58:21;;;;;;;8.30;1.77;;;;;;;13.43;100.00;99633.72;4921908;29;20029;-72
2023/04/24 11:00:59;;;;;;;5.75;1.20;;;;;;;14.01;100.00;99638.50;4919019;29;20068;-71
2023/04/24 11:03:31;;;;;;;4.93;1.00;;;;;;;14.56;92.89;99627.41;4937771;29;20112;-73
2023/04/24 11:06:06;;;;;;;1.85;0.77;;;;;;;14.87;85.82;99632.06;4939866;29;20123;-73
2023/04/24 11:08:43;;;;;;;3.30;0.77;;;;;;;15.16;82.99;99630.69;4938128;29;20071;-70
2023/04/24 11:11:12;;;;;;;6.03;1.13;;;;;;;15.08;80.06;99630.94;4937632;29;20051;-71
2023/04/24 11:13:54;;;;;;;10.45;1.30;;;;;;;15.25;78.30;99634.78;4937686;29;20052;-70
2023/04/24 11:16:28;;;;;;;1.98;0.70;;;;;;;14.96;78.42;99628.09;4937390;29;20040;-70
2023/04/24 11:19:10;;;;;;;4.78;1.00;;;;;;;15.16;80.70;99620.72;4937249;29;20042;-72
2023/04/24 11:21:47;;;;;;;1.88;0.73;;;;;;;14.46;78.86;99626.00;4937427;29;20120;-71
2023/04/24 11:24:23;;;;;;;3.50;0.63;;;;;;;13.99;82.17;99627.13;4937066;29;20229;-70
2023/04/24 11:27:03;;;;;;;1.38;0.70;;;;;;;13.81;88.21;99627.75;4937042;29;20051;-70
2023/04/24 11:29:50;;;;;;;3.00;0.88;;;;;;;13.54;100.00;99624.19;4934004;29;20063;-71
2023/04/24 11:32:18;;;;;;;1.55;0.70;;;;;;;13.73;100.00;99636.00;4918621;29;20044;-70
2023/04/24 11:34:47;;;;;;;3.55;0.98;;;;;;;13.37;100.00;99636.41;4919797;29;20059;-72